Crossroads

2021-01-22 03:00:00

  • imperial
Date Time Air Temperature Relative Humidity Wind Speed Wind Dir. Precipitation Solar Radiation Soil Temperature Soil Temperature Soil Temperature Soil Temperature Soil Temperature
5cm 10cm 20cm 50cm 100cm
US/Mountain F % MPH deg in MJ/m^2 F F F F F
max min avg max min max avg avg
2021-01-21 06:00:00 42.6 40.3 41.7 76.0 69.0 7.2 5.2 286.0 0.00 0.0002880 42.6 42.8 43.5 -147.8 50.2
2021-01-21 07:00:00 40.3 38.8 39.4 80.0 76.0 6.9 5.1 256.0 0.00 0.0043920 42.1 42.6 43.5 -147.8 50.2
2021-01-21 08:00:00 43.3 39.7 41.0 78.0 70.0 9.4 5.4 260.0 0.00 0.1122840 41.7 42.3 43.3 -147.8 50.2
2021-01-21 09:00:00 48.6 43.3 45.9 70.0 54.0 11.8 7.3 278.0 0.00 0.3924000 42.1 42.3 43.3 -147.8 50.2
2021-01-21 10:00:00 55.4 48.6 50.9 54.0 43.0 13.0 9.1 309.0 0.00 0.6372000 43.2 42.8 43.2 -147.8 50.2
2021-01-21 11:00:00 62.2 55.4 59.5 43.0 30.0 14.6 9.9 298.0 0.00 1.9126800 45.3 44.2 43.2 -147.8 50.2
2021-01-21 12:00:00 63.5 62.2 63.1 30.0 28.0 13.9 8.5 276.0 0.00 2.0728800 49.1 47.3 43.5 -147.8 50.2
2021-01-21 13:00:00 64.8 62.8 63.9 28.0 27.0 15.5 10.0 259.0 0.00 1.9436400 52.5 50.4 44.1 -147.8 50.2
2021-01-21 14:00:00 66.2 62.8 64.8 27.0 24.0 14.6 9.2 256.0 0.00 1.6660800 55.0 52.9 45.0 -147.8 50.2
2021-01-21 15:00:00 66.2 64.4 65.3 27.0 24.0 15.6 10.6 283.0 0.00 0.9968400 56.7 54.7 46.0 -147.8 50.2
2021-01-21 16:00:00 64.4 61.7 63.0 29.0 27.0 18.2 11.9 281.0 0.00 0.3211200 56.7 55.4 47.3 -147.8 50.2
2021-01-21 17:00:00 61.7 57.9 60.8 35.0 29.0 14.7 7.7 280.0 0.00 0.1431000 55.9 55.0 48.2 -147.8 50.2
2021-01-21 18:00:00 57.9 55.4 56.8 38.0 35.0 9.5 5.8 278.0 0.00 0.0040320 54.9 54.3 48.9 -147.8 50.2
2021-01-21 19:00:00 55.4 50.7 53.4 49.0 38.0 5.8 4.7 231.0 0.00 0.0000360 53.6 53.4 49.3 -147.8 50.2
2021-01-21 20:00:00 50.7 46.0 48.4 57.0 49.0 14.5 5.8 288.0 0.00 0.0000360 52.2 52.3 49.5 -147.8 50.2
2021-01-21 21:00:00 49.5 46.8 48.2 54.0 50.0 9.9 6.9 305.0 0.00 0.0001080 50.9 51.3 49.5 -147.8 50.2
2021-01-21 22:00:00 47.3 43.3 45.3 61.0 52.0 9.4 6.3 293.0 0.00 0.0001440 49.6 50.2 49.3 -147.8 50.2
2021-01-21 23:00:00 46.8 43.3 45.3 61.0 56.0 11.3 7.7 308.0 0.00 0.0001800 48.4 49.1 48.9 -147.8 50.2
2021-01-22 00:00:00 46.4 44.1 45.5 63.0 56.0 14.2 10.4 303.0 0.00 0.0002160 47.5 48.2 48.6 -147.8 50.2
2021-01-22 01:00:00 44.4 42.6 43.5 66.0 61.0 15.7 11.5 312.0 0.00 0.0002520 46.6 47.3 48.2 -147.8 50.2
2021-01-22 02:00:00 46.0 44.4 45.1 61.0 56.0 16.4 12.0 321.0 0.00 0.0001440 45.9 46.8 47.8 -147.8 50.2
2021-01-22 03:00:00 45.0 43.9 44.2 64.0 59.0 15.6 11.5 314.0 0.00 0.0002160 45.3 46.0 47.5 -147.8 50.2

Data is presented as is, with no certification of correctness. DO NOT USE IN LEGAL PROCEEDINGS.